createdAt,value
2018-09-27T00:01:36.720Z,15.90
2018-09-27T00:04:10.996Z,15.90
2018-09-27T00:06:45.421Z,15.90
2018-09-27T00:09:20.161Z,15.90
2018-09-27T00:11:55.913Z,15.90
2018-09-27T00:14:30.131Z,15.90
2018-09-27T00:17:06.572Z,15.90
2018-09-27T00:19:41.203Z,15.90
2018-09-27T00:22:16.273Z,15.90
2018-09-27T00:24:50.484Z,15.90
2018-09-27T00:27:25.104Z,15.90
2018-09-27T00:29:59.433Z,16.00
2018-09-27T00:32:34.044Z,16.00
2018-09-27T00:35:08.412Z,16.00
2018-09-27T00:37:42.785Z,15.90
2018-09-27T00:40:17.184Z,15.90
2018-09-27T00:42:52.255Z,15.90
2018-09-27T00:45:26.556Z,15.90
2018-09-27T00:48:01.693Z,15.80
2018-09-27T00:50:36.003Z,15.80
2018-09-27T00:53:12.109Z,15.80
2018-09-27T00:56:00.923Z,15.80
2018-09-27T00:58:35.232Z,15.70
2018-09-27T01:01:09.451Z,15.70
2018-09-27T01:03:43.985Z,15.70
2018-09-27T01:06:18.298Z,15.60
2018-09-27T01:08:52.945Z,15.60
2018-09-27T01:11:27.469Z,15.50
2018-09-27T01:14:02.793Z,15.60
2018-09-27T01:16:37.417Z,15.50
2018-09-27T01:19:11.792Z,15.50
2018-09-27T01:21:46.680Z,15.50
2018-09-27T01:24:21.560Z,15.50
2018-09-27T01:26:56.952Z,15.40
2018-09-27T01:29:31.264Z,15.40
2018-09-27T01:32:05.464Z,15.40
2018-09-27T01:34:41.477Z,15.40
2018-09-27T01:37:16.893Z,15.40
2018-09-27T01:39:51.702Z,15.40
2018-09-27T01:42:26.017Z,15.40
2018-09-27T01:45:00.308Z,15.40
2018-09-27T01:47:34.840Z,15.30
2018-09-27T01:50:10.059Z,15.40
2018-09-27T01:52:46.020Z,15.30
2018-09-27T01:55:22.234Z,15.30
2018-09-27T01:57:56.528Z,15.30
2018-09-27T02:00:31.588Z,15.30
2018-09-27T02:03:05.884Z,15.30
2018-09-27T02:05:40.837Z,15.20
2018-09-27T02:08:15.141Z,15.20
2018-09-27T02:10:50.180Z,15.20
2018-09-27T02:13:24.472Z,15.10
2018-09-27T02:15:58.919Z,15.10
2018-09-27T02:18:33.738Z,15.10
2018-09-27T02:21:08.109Z,15.00
2018-09-27T02:23:43.092Z,15.00
2018-09-27T02:26:17.418Z,15.00
2018-09-27T02:28:51.916Z,14.90
2018-09-27T02:31:27.328Z,14.90
2018-09-27T02:34:02.609Z,14.80
2018-09-27T02:36:36.840Z,14.80
2018-09-27T02:39:11.527Z,14.70
2018-09-27T02:41:45.985Z,14.60
2018-09-27T02:44:20.472Z,14.60
2018-09-27T02:46:56.341Z,14.60
2018-09-27T02:49:30.597Z,14.60
2018-09-27T02:52:05.056Z,14.70
2018-09-27T02:54:39.385Z,14.60
2018-09-27T02:57:13.929Z,14.60
2018-09-27T02:59:48.445Z,14.50
2018-09-27T03:02:22.898Z,14.50
2018-09-27T03:04:57.318Z,14.40
2018-09-27T03:07:31.729Z,14.40
2018-09-27T03:10:06.312Z,14.30
2018-09-27T03:12:40.578Z,14.20
2018-09-27T03:15:15.002Z,14.10
2018-09-27T03:17:49.417Z,14.10
2018-09-27T03:20:23.716Z,14.10
2018-09-27T03:22:58.152Z,14.10
2018-09-27T03:25:32.683Z,14.20
2018-09-27T03:28:07.022Z,14.20
2018-09-27T03:30:51.007Z,14.30
2018-09-27T03:33:25.491Z,14.30
2018-09-27T03:35:59.869Z,14.40
2018-09-27T03:38:34.304Z,14.50
2018-09-27T03:41:08.572Z,14.50
2018-09-27T03:43:43.051Z,14.50
2018-09-27T03:46:17.646Z,14.50
2018-09-27T03:48:52.075Z,14.60
2018-09-27T03:51:26.582Z,14.70
2018-09-27T03:54:01.225Z,14.70
2018-09-27T03:56:35.709Z,14.70
2018-09-27T03:59:10.161Z,14.70
2018-09-27T04:01:44.769Z,14.70
2018-09-27T04:04:19.174Z,14.70
2018-09-27T04:06:53.697Z,14.70
2018-09-27T04:09:28.162Z,14.70
2018-09-27T04:12:02.549Z,14.70
2018-09-27T04:14:36.871Z,14.80
2018-09-27T04:17:11.341Z,14.80
2018-09-27T04:19:45.631Z,14.80
2018-09-27T04:22:20.861Z,14.80
2018-09-27T04:24:55.896Z,14.90
2018-09-27T04:27:31.365Z,14.90
2018-09-27T04:30:06.494Z,14.80
2018-09-27T04:32:40.981Z,14.90
2018-09-27T04:35:15.318Z,14.90
2018-09-27T04:37:49.723Z,14.80
2018-09-27T04:40:24.266Z,14.80
2018-09-27T04:46:10.081Z,14.70
2018-09-27T04:48:45.135Z,14.70
2018-09-27T04:51:20.127Z,14.60
2018-09-27T04:53:54.460Z,14.60
2018-09-27T04:56:28.989Z,14.50
2018-09-27T04:59:05.010Z,14.40
2018-09-27T05:01:39.546Z,14.30
2018-09-27T05:04:14.809Z,14.30
2018-09-27T05:06:49.703Z,14.30
2018-09-27T05:09:25.120Z,14.20
2018-09-27T05:11:59.551Z,14.20
2018-09-27T05:14:33.824Z,14.10
2018-09-27T05:17:08.925Z,14.10
2018-09-27T05:19:43.980Z,14.10
2018-09-27T05:22:18.649Z,14.10
2018-09-27T05:24:53.817Z,14.20
2018-09-27T05:27:28.219Z,14.20
2018-09-27T05:30:03.391Z,14.30
2018-09-27T05:32:37.828Z,14.30
2018-09-27T05:35:12.293Z,14.40
2018-09-27T05:37:46.665Z,14.50
2018-09-27T05:40:21.245Z,14.50
2018-09-27T05:42:55.793Z,14.60
2018-09-27T05:45:31.748Z,14.60
2018-09-27T05:48:09.366Z,14.60
2018-09-27T05:50:45.947Z,14.70
2018-09-27T05:53:21.711Z,14.70
2018-09-27T05:55:56.703Z,14.80
2018-09-27T05:58:31.906Z,14.70
2018-09-27T06:01:06.505Z,14.70
2018-09-27T06:03:40.927Z,14.70
2018-09-27T06:06:15.238Z,14.70
2018-09-27T06:08:49.565Z,14.60
2018-09-27T06:11:24.711Z,14.50
2018-09-27T06:14:00.462Z,14.60
2018-09-27T06:16:35.411Z,14.70
2018-09-27T06:19:10.373Z,14.80
2018-09-27T06:21:45.130Z,14.90
2018-09-27T06:24:19.631Z,14.90
2018-09-27T06:26:54.097Z,15.00
2018-09-27T06:29:31.044Z,15.00
2018-09-27T06:32:06.257Z,15.00
2018-09-27T06:34:42.111Z,15.00
2018-09-27T06:37:17.709Z,15.00
2018-09-27T06:39:52.265Z,15.00
2018-09-27T06:42:27.312Z,15.20
2018-09-27T06:45:02.916Z,15.30
2018-09-27T06:47:45.298Z,15.30
2018-09-27T06:50:22.965Z,15.30
2018-09-27T06:52:59.225Z,15.40
2018-09-27T06:55:37.697Z,15.50
2018-09-27T06:58:15.620Z,15.50
2018-09-27T07:00:54.000Z,15.50
2018-09-27T07:06:25.018Z,15.70
2018-09-27T07:09:01.718Z,15.80
2018-09-27T07:11:40.841Z,16.00
2018-09-27T07:14:28.240Z,16.10
2018-09-27T07:17:02.925Z,16.20
2018-09-27T07:19:39.802Z,16.30
2018-09-27T07:22:15.829Z,16.30
2018-09-27T07:24:50.174Z,16.40
2018-09-27T07:27:26.365Z,16.50
2018-09-27T07:30:00.833Z,16.70
2018-09-27T07:32:36.516Z,16.80
2018-09-27T07:35:11.773Z,16.80
2018-09-27T07:37:46.270Z,16.70
2018-09-27T07:40:21.782Z,16.70
2018-09-27T07:42:56.887Z,16.80
2018-09-27T07:45:31.336Z,16.80
2018-09-27T07:48:07.341Z,16.90
2018-09-27T07:50:42.550Z,17.00
2018-09-27T07:53:16.928Z,17.00
2018-09-27T07:55:51.445Z,17.00
2018-09-27T07:58:25.968Z,17.10
2018-09-27T08:01:01.132Z,17.20
2018-09-27T08:03:35.923Z,17.20
2018-09-27T08:06:10.287Z,17.30
2018-09-27T08:08:46.149Z,17.40
2018-09-27T08:11:21.079Z,17.60
2018-09-27T08:13:55.474Z,17.80
2018-09-27T08:16:31.050Z,18.00
2018-09-27T08:19:11.678Z,18.10
2018-09-27T08:21:46.921Z,18.30
2018-09-27T08:24:21.468Z,18.50
2018-09-27T08:26:57.833Z,18.50
2018-09-27T08:29:32.431Z,18.60
2018-09-27T08:32:07.057Z,18.50
2018-09-27T08:34:43.082Z,18.60
2018-09-27T08:37:17.545Z,18.50
2018-09-27T08:39:54.446Z,18.50
2018-09-27T08:42:28.813Z,18.40
2018-09-27T08:45:03.309Z,18.60
2018-09-27T08:47:37.695Z,18.70
2018-09-27T08:50:15.799Z,18.80
2018-09-27T08:52:57.182Z,18.70
2018-09-27T08:55:31.839Z,18.60
2018-09-27T08:58:06.855Z,18.30
2018-09-27T09:00:41.274Z,18.20
2018-09-27T09:03:17.937Z,18.10
2018-09-27T09:06:08.697Z,18.10
2018-09-27T09:08:43.423Z,18.00
2018-09-27T09:11:18.479Z,18.00
2018-09-27T09:13:53.241Z,18.10
2018-09-27T09:16:32.715Z,18.20
2018-09-27T09:19:07.175Z,18.30
2018-09-27T09:21:41.643Z,18.50
2018-09-27T09:24:16.251Z,18.50
2018-09-27T09:26:50.674Z,18.50
2018-09-27T09:29:25.928Z,18.40
2018-09-27T09:32:00.367Z,18.50
2018-09-27T09:34:35.746Z,18.60
2018-09-27T09:37:11.233Z,18.70
2018-09-27T09:39:45.935Z,18.60
2018-09-27T09:42:20.499Z,18.80
2018-09-27T09:44:55.199Z,18.80
2018-09-27T09:47:31.316Z,18.70
2018-09-27T09:50:05.993Z,18.60
2018-09-27T09:52:40.516Z,18.50
2018-09-27T09:55:15.043Z,18.60
2018-09-27T09:57:50.546Z,18.50
2018-09-27T10:00:25.460Z,18.60
2018-09-27T10:03:00.757Z,18.60
2018-09-27T10:05:35.275Z,18.70
2018-09-27T10:08:10.106Z,18.70
2018-09-27T10:10:44.798Z,18.80
2018-09-27T10:13:20.336Z,18.90
2018-09-27T10:15:55.685Z,19.00
2018-09-27T10:18:30.778Z,19.20
2018-09-27T10:21:05.289Z,19.20
2018-09-27T10:23:40.073Z,19.30
2018-09-27T10:26:14.590Z,19.40
2018-09-27T10:28:59.080Z,19.40
2018-09-27T10:31:33.757Z,19.50
2018-09-27T10:34:08.529Z,19.50
2018-09-27T10:36:43.163Z,19.50
2018-09-27T10:39:17.815Z,19.60
2018-09-27T10:41:52.450Z,19.70
2018-09-27T10:44:27.208Z,19.70
2018-09-27T10:47:02.642Z,19.70
2018-09-27T10:49:37.415Z,19.80
2018-09-27T10:52:12.054Z,19.70
2018-09-27T10:54:46.665Z,19.80
2018-09-27T10:57:21.816Z,19.80
2018-09-27T11:00:04.270Z,20.00
2018-09-27T11:02:42.819Z,20.00
2018-09-27T11:05:17.910Z,20.10
2018-09-27T11:07:52.475Z,20.20
2018-09-27T11:10:26.958Z,20.20
2018-09-27T11:13:01.727Z,20.10
2018-09-27T11:15:36.702Z,20.10
2018-09-27T11:18:11.203Z,20.10
2018-09-27T11:20:46.190Z,20.20
2018-09-27T11:23:20.565Z,20.30
2018-09-27T11:25:55.725Z,20.30
2018-09-27T11:28:35.506Z,20.30
2018-09-27T11:31:15.459Z,20.40
2018-09-27T11:33:49.740Z,20.50
2018-09-27T11:36:24.562Z,20.70
2018-09-27T11:38:58.806Z,20.80
2018-09-27T11:41:34.066Z,20.90
2018-09-27T11:44:08.699Z,21.00
2018-09-27T11:46:43.078Z,21.10
2018-09-27T11:49:17.529Z,21.20
2018-09-27T11:51:52.410Z,21.10
2018-09-27T11:54:29.476Z,21.10
2018-09-27T11:57:03.931Z,21.10
2018-09-27T11:59:38.475Z,21.20
2018-09-27T12:02:13.893Z,21.30
2018-09-27T12:04:49.704Z,21.30
2018-09-27T12:07:24.545Z,21.50
2018-09-27T12:09:58.993Z,21.60
2018-09-27T12:12:33.236Z,21.60
2018-09-27T12:15:08.439Z,21.60
2018-09-27T12:17:42.816Z,21.70
2018-09-27T12:20:17.293Z,21.80
2018-09-27T12:22:52.344Z,21.80
2018-09-27T12:25:26.762Z,21.80
2018-09-27T12:28:01.172Z,22.00
2018-09-27T12:30:35.792Z,22.00
2018-09-27T12:33:10.317Z,22.00
2018-09-27T12:35:44.737Z,22.10
2018-09-27T12:38:19.192Z,22.20
2018-09-27T12:40:54.197Z,22.40
2018-09-27T12:43:30.148Z,22.70
2018-09-27T12:46:04.459Z,23.50
2018-09-27T12:48:38.903Z,24.70
2018-09-27T12:51:13.292Z,25.40
2018-09-27T12:53:48.893Z,26.70
2018-09-27T12:56:24.177Z,27.60
2018-09-27T12:58:58.688Z,28.40
2018-09-27T13:01:33.011Z,28.20
2018-09-27T13:04:08.816Z,28.90
2018-09-27T13:06:43.079Z,30.40
2018-09-27T13:09:17.759Z,30.60
2018-09-27T13:11:52.057Z,30.40
2018-09-27T13:14:26.568Z,30.10
2018-09-27T13:17:01.008Z,30.10
2018-09-27T13:19:35.299Z,30.20
2018-09-27T13:22:09.556Z,30.70
2018-09-27T13:24:43.811Z,31.10
2018-09-27T13:27:18.340Z,31.70
2018-09-27T13:29:52.590Z,32.20
2018-09-27T13:32:26.883Z,32.10
2018-09-27T13:35:01.352Z,32.30
2018-09-27T13:37:35.808Z,32.90
2018-09-27T13:40:10.133Z,33.40
2018-09-27T13:42:44.633Z,33.90
2018-09-27T13:45:18.889Z,34.70
2018-09-27T13:47:53.048Z,34.80
2018-09-27T13:50:27.523Z,36.60
2018-09-27T13:53:01.843Z,37.40
2018-09-27T13:55:36.276Z,37.20
2018-09-27T13:58:10.590Z,36.30
2018-09-27T14:00:45.925Z,36.20
2018-09-27T14:03:20.512Z,36.70
2018-09-27T14:05:54.889Z,36.80
2018-09-27T14:08:29.693Z,36.80
2018-09-27T14:11:04.245Z,36.00
2018-09-27T14:13:38.522Z,37.00
2018-09-27T14:16:12.741Z,38.90
2018-09-27T14:18:47.198Z,39.30
2018-09-27T14:21:22.399Z,37.30
2018-09-27T14:23:56.621Z,35.90
2018-09-27T14:26:31.664Z,35.40
2018-09-27T14:29:06.951Z,35.70
2018-09-27T14:31:42.429Z,36.00
2018-09-27T14:34:17.954Z,36.60
2018-09-27T14:36:53.411Z,36.40
2018-09-27T14:39:27.672Z,38.50
2018-09-27T14:42:02.419Z,39.70
2018-09-27T14:44:37.923Z,40.00
2018-09-27T14:47:12.517Z,40.20
2018-09-27T14:49:47.217Z,39.70
2018-09-27T14:52:21.690Z,40.70
2018-09-27T14:54:56.327Z,41.90
2018-09-27T14:57:31.877Z,41.90
2018-09-27T15:00:06.161Z,41.50
2018-09-27T15:02:40.566Z,38.70
2018-09-27T15:05:14.849Z,37.70
2018-09-27T15:07:49.403Z,37.10
2018-09-27T15:10:26.399Z,37.10
2018-09-27T15:13:01.129Z,36.50
2018-09-27T15:15:35.649Z,36.60
2018-09-27T15:18:10.525Z,36.70
2018-09-27T15:20:46.493Z,37.30
2018-09-27T15:23:20.748Z,37.70
2018-09-27T15:25:55.617Z,39.10
2018-09-27T15:28:30.007Z,39.40
2018-09-27T15:31:04.290Z,39.60
2018-09-27T15:33:39.561Z,38.80
2018-09-27T15:36:13.984Z,38.40
2018-09-27T15:38:48.405Z,38.40
2018-09-27T15:41:23.151Z,38.60
2018-09-27T15:43:59.281Z,39.00
2018-09-27T15:46:33.696Z,39.10
2018-09-27T15:49:08.014Z,38.50
2018-09-27T15:51:42.511Z,38.10
2018-09-27T15:54:17.037Z,36.10
2018-09-27T15:56:53.073Z,34.80
2018-09-27T15:59:27.312Z,35.60
2018-09-27T16:02:01.576Z,34.30
2018-09-27T16:04:35.818Z,34.40
2018-09-27T16:07:10.185Z,34.20
2018-09-27T16:09:44.578Z,35.00
2018-09-27T16:12:19.228Z,35.00
2018-09-27T16:14:53.738Z,33.20
2018-09-27T16:17:28.237Z,29.60
2018-09-27T16:20:02.546Z,27.50
2018-09-27T16:22:36.822Z,26.00
2018-09-27T16:25:11.122Z,25.10
2018-09-27T16:27:47.509Z,24.50
2018-09-27T16:30:21.822Z,24.00
2018-09-27T16:32:56.184Z,23.70
2018-09-27T16:35:30.510Z,23.40
2018-09-27T16:38:04.843Z,23.10
2018-09-27T16:40:39.173Z,23.00
2018-09-27T16:43:13.798Z,22.80
2018-09-27T16:45:48.334Z,22.70
2018-09-27T16:48:22.553Z,22.50
2018-09-27T16:50:56.923Z,22.30
2018-09-27T16:53:31.509Z,22.10
2018-09-27T16:56:06.777Z,21.90
2018-09-27T16:58:41.260Z,21.80
2018-09-27T17:01:15.800Z,21.60
2018-09-27T17:03:50.238Z,21.40
2018-09-27T17:06:24.694Z,21.30
2018-09-27T17:08:59.140Z,21.10
2018-09-27T17:11:33.441Z,20.90
2018-09-27T17:14:07.926Z,20.80
2018-09-27T17:16:42.195Z,20.50
2018-09-27T17:19:16.304Z,20.30
2018-09-27T17:21:50.652Z,20.10
2018-09-27T17:24:25.021Z,19.90
2018-09-27T17:26:59.361Z,19.70
2018-09-27T17:29:33.882Z,19.50
2018-09-27T17:32:08.093Z,19.50
2018-09-27T17:34:42.623Z,19.30
2018-09-27T17:37:16.853Z,19.10
2018-09-27T17:39:51.311Z,18.90
2018-09-27T17:42:25.765Z,18.60
2018-09-27T17:45:01.307Z,18.40
2018-09-27T17:47:35.745Z,18.20
2018-09-27T17:50:10.230Z,18.10
2018-09-27T17:52:45.232Z,18.00
2018-09-27T17:55:20.209Z,17.80
2018-09-27T17:57:54.682Z,17.60
2018-09-27T18:00:28.987Z,17.30
2018-09-27T18:03:03.339Z,17.10
2018-09-27T18:05:37.740Z,17.00
2018-09-27T18:08:12.178Z,16.80
2018-09-27T18:10:46.505Z,16.60
2018-09-27T18:13:20.936Z,16.40
2018-09-27T18:15:56.625Z,16.30
2018-09-27T18:18:32.866Z,16.20
2018-09-27T18:21:07.385Z,16.10
2018-09-27T18:23:41.723Z,16.10
2018-09-27T18:26:16.194Z,16.10
2018-09-27T18:28:51.660Z,16.30
2018-09-27T18:31:26.237Z,16.50
2018-09-27T18:34:00.686Z,16.60
2018-09-27T18:36:35.116Z,16.60
2018-09-27T18:39:11.375Z,16.40
2018-09-27T18:41:45.591Z,16.20
2018-09-27T18:44:20.626Z,16.00
2018-09-27T18:46:55.533Z,15.80
2018-09-27T18:49:30.083Z,15.50
2018-09-27T18:52:04.533Z,15.40
2018-09-27T18:54:39.613Z,15.30
2018-09-27T18:57:13.969Z,15.20
2018-09-27T18:59:48.807Z,15.00
2018-09-27T19:02:24.061Z,14.80
2018-09-27T19:04:58.589Z,14.70
2018-09-27T19:07:33.087Z,14.70
2018-09-27T19:10:07.719Z,14.80
2018-09-27T19:12:42.540Z,14.80
2018-09-27T19:15:19.583Z,14.80
2018-09-27T19:17:53.984Z,14.80
2018-09-27T19:20:29.777Z,14.90
2018-09-27T19:23:04.638Z,14.80
2018-09-27T19:25:39.050Z,14.60
2018-09-27T19:28:13.434Z,14.50
2018-09-27T19:30:48.523Z,14.40
2018-09-27T19:33:23.124Z,14.30
2018-09-27T19:35:57.708Z,14.30
2018-09-27T19:38:32.222Z,14.30
2018-09-27T19:41:06.495Z,14.20
2018-09-27T19:43:40.824Z,14.20
2018-09-27T19:46:15.417Z,14.20
2018-09-27T19:48:49.957Z,14.20
2018-09-27T19:51:24.288Z,14.10
2018-09-27T19:53:59.110Z,14.10
2018-09-27T19:56:33.953Z,14.00
2018-09-27T19:59:08.293Z,13.90
2018-09-27T20:01:42.911Z,13.70
2018-09-27T20:04:17.257Z,13.60
2018-09-27T20:06:51.550Z,13.50
2018-09-27T20:09:25.739Z,13.40
2018-09-27T20:12:00.149Z,13.40
2018-09-27T20:14:34.462Z,13.30
2018-09-27T20:17:08.845Z,13.20
2018-09-27T20:19:43.104Z,13.10
2018-09-27T20:22:17.594Z,13.10
2018-09-27T20:24:53.136Z,13.10
2018-09-27T20:27:27.513Z,13.00
2018-09-27T20:30:01.977Z,13.00
2018-09-27T20:32:36.373Z,12.90
2018-09-27T20:35:11.227Z,12.90
2018-09-27T20:37:45.592Z,12.80
2018-09-27T20:40:20.896Z,12.80
2018-09-27T20:42:55.180Z,12.80
2018-09-27T20:45:29.858Z,12.90
2018-09-27T20:48:04.233Z,12.80
2018-09-27T20:50:38.652Z,12.70
2018-09-27T20:53:12.881Z,12.60
2018-09-27T20:55:47.324Z,12.60
2018-09-27T20:58:22.269Z,12.50
2018-09-27T21:00:56.454Z,12.50
2018-09-27T21:03:30.789Z,12.50
2018-09-27T21:06:08.404Z,12.50
2018-09-27T21:08:43.822Z,12.40
2018-09-27T21:11:21.234Z,12.40
2018-09-27T21:13:55.807Z,12.50
2018-09-27T21:16:33.564Z,12.50
2018-09-27T21:19:07.837Z,12.50
2018-09-27T21:21:44.353Z,12.40
2018-09-27T21:24:19.437Z,12.30
2018-09-27T21:26:54.621Z,12.30
2018-09-27T21:29:29.965Z,12.30
2018-09-27T21:32:04.664Z,12.30
2018-09-27T21:34:39.406Z,12.30
2018-09-27T21:37:18.277Z,12.30
2018-09-27T21:39:55.717Z,12.20
2018-09-27T21:42:29.948Z,12.10
2018-09-27T21:45:04.429Z,12.10
2018-09-27T21:47:40.722Z,12.10
2018-09-27T21:50:15.349Z,12.10
2018-09-27T21:52:56.663Z,12.00
2018-09-27T21:55:30.855Z,11.90
2018-09-27T21:58:05.382Z,11.80
2018-09-27T22:00:41.174Z,11.80
2018-09-27T22:03:15.651Z,11.80
2018-09-27T22:05:50.034Z,11.90
2018-09-27T22:08:24.213Z,12.00
2018-09-27T22:10:59.782Z,12.00
2018-09-27T22:13:34.137Z,12.00
2018-09-27T22:16:08.524Z,12.00
2018-09-27T22:18:43.076Z,11.90
2018-09-27T22:21:17.544Z,11.80
2018-09-27T22:23:51.965Z,11.70
2018-09-27T22:26:26.464Z,11.50
2018-09-27T22:29:00.750Z,11.40
2018-09-27T22:31:35.080Z,11.20
2018-09-27T22:34:09.589Z,11.10
2018-09-27T22:36:43.820Z,11.10
2018-09-27T22:39:18.108Z,11.20
2018-09-27T22:41:53.231Z,11.20
2018-09-27T22:44:27.576Z,11.30
2018-09-27T22:47:03.429Z,11.20
2018-09-27T22:49:38.013Z,11.20
2018-09-27T22:52:13.368Z,11.00
2018-09-27T22:54:48.847Z,11.00
2018-09-27T22:57:23.049Z,10.90
2018-09-27T22:59:57.629Z,10.80
2018-09-27T23:02:31.969Z,10.70
2018-09-27T23:05:06.857Z,10.70
2018-09-27T23:07:41.881Z,10.60
2018-09-27T23:10:16.158Z,10.70
2018-09-27T23:12:50.642Z,10.60
2018-09-27T23:15:25.095Z,10.50
2018-09-27T23:17:59.342Z,10.50
2018-09-27T23:20:33.637Z,10.60
2018-09-27T23:23:08.164Z,10.60
2018-09-27T23:25:42.390Z,10.70
2018-09-27T23:28:17.117Z,10.80
2018-09-27T23:30:51.928Z,10.90
2018-09-27T23:33:26.338Z,11.10
2018-09-27T23:36:02.684Z,11.10
2018-09-27T23:38:37.204Z,11.10
2018-09-27T23:41:11.676Z,11.00
2018-09-27T23:43:47.426Z,11.00
2018-09-27T23:46:21.868Z,10.90
2018-09-27T23:48:56.236Z,10.90
2018-09-27T23:51:31.911Z,11.00
2018-09-27T23:54:06.337Z,11.00
2018-09-27T23:56:40.890Z,10.90
2018-09-27T23:59:15.248Z,10.90
